createdAt,value
2016-03-25T00:00:18.010Z,1005.31
2016-03-25T00:01:17.997Z,1005.32
2016-03-25T00:02:17.984Z,1005.28
2016-03-25T00:03:17.972Z,1005.32
2016-03-25T00:04:17.958Z,1005.29
2016-03-25T00:05:17.944Z,1005.3
2016-03-25T00:06:17.916Z,1005.32
2016-03-25T00:07:17.911Z,1005.31
2016-03-25T00:08:17.898Z,1005.31
2016-03-25T00:09:17.884Z,1005.33
2016-03-25T00:10:17.872Z,1005.34
2016-03-25T00:11:17.843Z,1005.33
2016-03-25T00:12:17.846Z,1005.32
2016-03-25T00:13:17.817Z,1005.34
2016-03-25T00:14:17.804Z,1005.31
2016-03-25T00:15:17.792Z,1005.32
2016-03-25T00:16:17.794Z,1005.31
2016-03-25T00:17:17.766Z,1005.31
2016-03-25T00:18:17.753Z,1005.26
2016-03-25T00:19:17.739Z,1005.3
2016-03-25T00:20:17.727Z,1005.28
2016-03-25T00:21:17.698Z,1005.29
2016-03-25T00:22:17.685Z,1005.26
2016-03-25T00:23:17.672Z,1005.25
2016-03-25T00:24:17.660Z,1005.27
2016-03-25T00:25:17.646Z,1005.23
2016-03-25T00:26:17.633Z,1005.23
2016-03-25T00:27:17.621Z,1005.23
2016-03-25T00:28:17.607Z,1005.25
2016-03-25T00:29:17.595Z,1005.18
2016-03-25T00:30:17.582Z,1005.2
2016-03-25T00:31:17.553Z,1005.19
2016-03-25T00:32:17.540Z,1005.16
2016-03-25T00:33:17.527Z,1005.21
2016-03-25T00:34:17.515Z,1005.19
2016-03-25T00:35:17.502Z,1005.19
2016-03-25T00:36:17.488Z,1005.18
2016-03-25T00:37:17.476Z,1005.15
2016-03-25T00:38:17.462Z,1005.15
2016-03-25T00:39:17.450Z,1005.16
2016-03-25T00:40:17.437Z,1005.14
2016-03-25T00:41:17.408Z,1005.17
2016-03-25T00:42:17.411Z,1005.17
2016-03-25T00:43:17.382Z,1005.15
2016-03-25T00:44:17.369Z,1005.16
2016-03-25T00:45:17.357Z,1005.17
2016-03-25T00:46:17.344Z,1005.17
2016-03-25T00:47:17.330Z,1005.16
2016-03-25T00:48:17.318Z,1005.14
2016-03-25T00:49:17.305Z,1005.12
2016-03-25T00:50:17.291Z,1005.14
2016-03-25T00:51:17.279Z,1005.14
2016-03-25T00:52:17.250Z,1005.09
2016-03-25T00:53:17.238Z,1005.12
2016-03-25T00:54:17.225Z,1005.1
2016-03-25T00:55:17.211Z,1005.11
2016-03-25T00:56:17.199Z,1005.09
2016-03-25T00:57:17.185Z,1005.1
2016-03-25T00:58:17.172Z,1005.07
2016-03-25T00:59:17.159Z,1005.11
2016-03-25T01:00:17.147Z,1005.05
2016-03-25T01:01:17.134Z,1005.06
2016-03-25T01:02:17.105Z,1005.1
2016-03-25T01:03:17.093Z,1005.06
2016-03-25T01:04:17.080Z,1005.05
2016-03-25T01:05:17.066Z,1005.07
2016-03-25T01:06:17.054Z,1005.03
2016-03-25T01:07:17.041Z,1005.03
2016-03-25T01:08:17.028Z,1005.02
2016-03-25T01:09:17.015Z,1005.03
2016-03-25T01:10:17.002Z,1005.02
2016-03-25T01:11:16.973Z,1005
2016-03-25T01:12:16.960Z,1005.02
2016-03-25T01:13:16.947Z,1004.99
2016-03-25T01:14:16.934Z,1005.03
2016-03-25T01:15:16.922Z,1005.01
2016-03-25T01:16:16.909Z,1005.04
2016-03-25T01:17:16.896Z,1005.01
2016-03-25T01:18:16.883Z,1005.03
2016-03-25T01:19:16.870Z,1004.95
2016-03-25T01:20:16.857Z,1004.95
2016-03-25T01:21:16.844Z,1004.93
2016-03-25T01:22:16.816Z,1004.91
2016-03-25T01:23:16.818Z,1004.92
2016-03-25T01:24:16.789Z,1004.93
2016-03-25T01:25:16.777Z,1004.92
2016-03-25T01:26:16.795Z,1004.89
2016-03-25T01:27:16.750Z,1004.86
2016-03-25T01:28:16.769Z,1004.91
2016-03-25T01:29:16.724Z,1004.87
2016-03-25T01:30:16.713Z,1004.86
2016-03-25T01:31:16.699Z,1004.86
2016-03-25T01:32:16.671Z,1004.88
2016-03-25T01:33:16.673Z,1004.8
2016-03-25T01:34:16.644Z,1004.85
2016-03-25T01:35:16.632Z,1004.78
2016-03-25T01:36:16.619Z,1004.83
2016-03-25T01:37:16.606Z,1004.79
2016-03-25T01:38:16.593Z,1004.79
2016-03-25T01:39:16.579Z,1004.81
2016-03-25T01:40:16.567Z,1004.8
2016-03-25T01:41:16.554Z,1004.85
2016-03-25T01:42:16.526Z,1004.81
2016-03-25T01:43:16.512Z,1004.78
2016-03-25T01:44:16.500Z,1004.8
2016-03-25T01:45:16.487Z,1004.78
2016-03-25T01:46:16.473Z,1004.79
2016-03-25T01:47:16.461Z,1004.75
2016-03-25T01:48:16.448Z,1004.71
2016-03-25T01:49:16.434Z,1004.75
2016-03-25T01:50:16.422Z,1004.75
2016-03-25T01:51:16.409Z,1004.73
2016-03-25T01:52:16.380Z,1004.72
2016-03-25T01:53:16.367Z,1004.73
2016-03-25T01:54:16.355Z,1004.69
2016-03-25T01:55:16.341Z,1004.65
2016-03-25T01:56:16.328Z,1004.69
2016-03-25T01:57:16.316Z,1004.69
2016-03-25T01:58:16.303Z,1004.68
2016-03-25T01:59:16.290Z,1004.61
2016-03-25T02:00:16.261Z,1004.64
2016-03-25T02:01:16.264Z,1004.63
2016-03-25T02:02:16.236Z,1004.65
2016-03-25T02:03:16.238Z,1004.66
2016-03-25T02:04:16.209Z,1004.64
2016-03-25T02:05:16.196Z,1004.66
2016-03-25T02:06:16.184Z,1004.65
2016-03-25T02:07:16.171Z,1004.63
2016-03-25T02:08:16.157Z,1004.63
2016-03-25T02:09:16.129Z,1004.64
2016-03-25T02:10:16.116Z,1004.62
2016-03-25T02:11:16.103Z,1004.57
2016-03-25T02:12:16.090Z,1004.57
2016-03-25T02:13:16.078Z,1004.54
2016-03-25T02:14:16.064Z,1004.57
2016-03-25T02:15:16.052Z,1004.6
2016-03-25T02:16:16.023Z,1004.63
2016-03-25T02:17:16.009Z,1004.58
2016-03-25T02:18:15.998Z,1004.61
2016-03-25T02:19:15.984Z,1004.58
2016-03-25T02:20:15.971Z,1004.58
2016-03-25T02:21:15.959Z,1004.57
2016-03-25T02:22:15.945Z,1004.57
2016-03-25T02:23:15.933Z,1004.55
2016-03-25T02:24:15.919Z,1004.56
2016-03-25T02:25:15.906Z,1004.53
2016-03-25T02:26:15.894Z,1004.52
2016-03-25T02:27:15.865Z,1004.52
2016-03-25T02:28:15.852Z,1004.49
2016-03-25T02:29:15.838Z,1004.52
2016-03-25T02:30:15.826Z,1004.51
2016-03-25T02:31:15.830Z,1004.49
2016-03-25T02:32:15.800Z,1004.44
2016-03-25T02:33:15.787Z,1004.44
2016-03-25T02:34:15.760Z,1004.4
2016-03-25T02:35:15.746Z,1004.4
2016-03-25T02:36:15.732Z,1004.36
2016-03-25T02:37:15.720Z,1004.39
2016-03-25T02:38:15.707Z,1004.41
2016-03-25T02:39:15.694Z,1004.37
2016-03-25T02:40:15.682Z,1004.37
2016-03-25T02:41:15.668Z,1004.38
2016-03-25T02:42:15.640Z,1004.37
2016-03-25T02:43:15.627Z,1004.35
2016-03-25T02:44:15.614Z,1004.34
2016-03-25T02:45:15.600Z,1004.37
2016-03-25T02:46:15.587Z,1004.35
2016-03-25T02:47:15.567Z,1004.35
2016-03-25T02:48:15.539Z,1004.33
2016-03-25T02:49:15.512Z,1004.34
2016-03-25T02:50:15.483Z,1004.32
2016-03-25T02:51:15.440Z,1004.33
2016-03-25T02:52:15.667Z,1004.3
2016-03-25T02:53:15.398Z,1004.38
2016-03-25T02:54:15.381Z,1004.36
2016-03-25T02:55:15.362Z,1004.37
2016-03-25T02:56:15.345Z,1004.34
2016-03-25T02:57:15.327Z,1004.36
2016-03-25T02:58:15.312Z,1004.3
2016-03-25T02:59:15.298Z,1004.32
2016-03-25T03:00:15.283Z,1004.33
2016-03-25T03:01:15.252Z,1004.33
2016-03-25T03:02:15.238Z,1004.3
2016-03-25T03:03:15.225Z,1004.3
2016-03-25T03:04:15.211Z,1004.29
2016-03-25T03:05:15.197Z,1004.22
2016-03-25T03:06:15.183Z,1004.25
2016-03-25T03:07:15.153Z,1004.25
2016-03-25T03:08:15.141Z,1004.24
2016-03-25T03:09:15.127Z,1004.23
2016-03-25T03:10:15.114Z,1004.2
2016-03-25T03:11:15.101Z,1004.18
2016-03-25T03:12:15.087Z,1004.15
2016-03-25T03:13:15.872Z,1004.16
2016-03-25T03:14:15.046Z,1004.13
2016-03-25T03:15:15.048Z,1004.19
2016-03-25T03:16:15.020Z,1004.17
2016-03-25T03:17:15.008Z,1004.12
2016-03-25T03:18:14.994Z,1004.14
2016-03-25T03:19:14.981Z,1004.09
2016-03-25T03:20:14.969Z,1004.11
2016-03-25T03:21:14.940Z,1004.11
2016-03-25T03:22:14.927Z,1004.12
2016-03-25T03:23:14.930Z,1004.12
2016-03-25T03:24:14.917Z,1004.12
2016-03-25T03:25:14.888Z,1004.09
2016-03-25T03:26:14.875Z,1004.07
2016-03-25T03:27:14.863Z,1004.06
2016-03-25T03:28:14.833Z,1004.05
2016-03-25T03:29:14.822Z,1004.04
2016-03-25T03:30:14.809Z,1004
2016-03-25T03:31:14.796Z,1003.95
2016-03-25T03:32:14.783Z,1003.98
2016-03-25T03:33:14.770Z,1003.96
2016-03-25T03:34:14.741Z,1003.93
2016-03-25T03:35:14.728Z,1003.95
2016-03-25T03:36:14.716Z,1003.92
2016-03-25T03:37:14.702Z,1003.92
2016-03-25T03:38:14.691Z,1003.94
2016-03-25T03:39:14.677Z,1003.92
2016-03-25T03:40:14.648Z,1003.91
2016-03-25T03:41:14.652Z,1003.93
2016-03-25T03:42:14.622Z,1003.87
2016-03-25T03:43:14.609Z,1003.89
2016-03-25T03:44:14.597Z,1003.91
2016-03-25T03:45:14.584Z,1003.86
2016-03-25T03:46:14.571Z,1003.87
2016-03-25T03:47:14.543Z,1003.89
2016-03-25T03:48:14.545Z,1003.86
2016-03-25T03:49:14.516Z,1003.87
2016-03-25T03:50:14.503Z,1003.85
2016-03-25T03:51:14.490Z,1003.88
2016-03-25T03:52:14.478Z,1003.83
2016-03-25T03:53:14.495Z,1003.87
2016-03-25T03:54:14.437Z,1003.84
2016-03-25T03:55:14.423Z,1003.86
2016-03-25T03:56:14.409Z,1003.85
2016-03-25T03:57:14.398Z,1003.81
2016-03-25T03:58:14.384Z,1003.82
2016-03-25T03:59:14.372Z,1003.83
2016-03-25T04:00:14.358Z,1003.78
2016-03-25T04:01:14.330Z,1003.83
2016-03-25T04:02:14.317Z,1003.79
2016-03-25T04:03:14.303Z,1003.8
2016-03-25T04:04:14.291Z,1003.79
2016-03-25T04:05:14.278Z,1003.79
2016-03-25T04:06:14.266Z,1003.77
2016-03-25T04:07:14.252Z,1003.8
2016-03-25T04:08:14.223Z,1003.75
2016-03-25T04:09:14.211Z,1003.74
2016-03-25T04:10:14.197Z,1003.72
2016-03-25T04:11:14.185Z,1003.77
2016-03-25T04:12:14.172Z,1003.75
2016-03-25T04:13:14.159Z,1003.74
2016-03-25T04:14:14.146Z,1003.74
2016-03-25T04:15:14.118Z,1003.78
2016-03-25T04:16:14.104Z,1003.77
2016-03-25T04:17:14.091Z,1003.79
2016-03-25T04:18:14.079Z,1003.75
2016-03-25T04:19:14.051Z,1003.71
2016-03-25T04:20:14.037Z,1003.74
2016-03-25T04:21:14.024Z,1003.76
2016-03-25T04:22:14.011Z,1003.73
2016-03-25T04:23:14.015Z,1003.7
2016-03-25T04:24:13.985Z,1003.73
2016-03-25T04:25:13.972Z,1003.71
2016-03-25T04:26:13.959Z,1003.68
2016-03-25T04:27:13.931Z,1003.74
2016-03-25T04:28:13.918Z,1003.77
2016-03-25T04:29:13.905Z,1003.75
2016-03-25T04:30:13.892Z,1003.69
2016-03-25T04:31:13.879Z,1003.66
2016-03-25T04:32:13.866Z,1003.74
2016-03-25T04:33:13.838Z,1003.74
2016-03-25T04:34:13.825Z,1003.67
2016-03-25T04:35:13.827Z,1003.67
2016-03-25T04:36:13.800Z,1003.71
2016-03-25T04:37:13.786Z,1003.68
2016-03-25T04:38:13.788Z,1003.67
2016-03-25T04:39:13.761Z,1003.67
2016-03-25T04:40:13.732Z,1003.67
2016-03-25T04:41:13.734Z,1003.62
2016-03-25T04:42:13.705Z,1003.62
2016-03-25T04:43:13.693Z,1003.61
2016-03-25T04:44:13.680Z,1003.61
2016-03-25T04:45:13.652Z,1003.57
2016-03-25T04:46:13.638Z,1003.56
2016-03-25T04:47:13.625Z,1003.55
2016-03-25T04:48:13.613Z,1003.54
2016-03-25T04:49:13.599Z,1003.51
2016-03-25T04:50:13.586Z,1003.55
2016-03-25T04:51:13.574Z,1003.52
2016-03-25T04:52:13.545Z,1003.49
2016-03-25T04:53:13.548Z,1003.51
2016-03-25T04:54:13.520Z,1003.51
2016-03-25T04:55:13.506Z,1003.49
2016-03-25T04:56:13.509Z,1003.52
2016-03-25T04:57:13.480Z,1003.49
2016-03-25T04:58:13.452Z,1003.47
2016-03-25T04:59:13.439Z,1003.53
2016-03-25T05:00:13.426Z,1003.47
2016-03-25T05:01:13.414Z,1003.49
2016-03-25T05:02:13.400Z,1003.48
2016-03-25T05:03:13.387Z,1003.47
2016-03-25T05:04:13.358Z,1003.52
2016-03-25T05:05:13.361Z,1003.53
2016-03-25T05:06:13.332Z,1003.5
2016-03-25T05:07:13.319Z,1003.43
2016-03-25T05:08:13.324Z,1003.49
2016-03-25T05:09:13.280Z,1003.45
2016-03-25T05:10:13.267Z,1003.5
2016-03-25T05:11:13.254Z,1003.49
2016-03-25T05:12:13.240Z,1003.51
2016-03-25T05:13:13.228Z,1003.47
2016-03-25T05:14:13.215Z,1003.45
2016-03-25T05:15:13.186Z,1003.49
2016-03-25T05:16:13.173Z,1003.47
2016-03-25T05:17:13.160Z,1003.46
2016-03-25T05:18:13.147Z,1003.47
2016-03-25T05:19:13.134Z,1003.52
2016-03-25T05:20:13.121Z,1003.44
2016-03-25T05:21:13.092Z,1003.43
2016-03-25T05:22:13.080Z,1003.48
2016-03-25T05:23:13.082Z,1003.44
2016-03-25T05:24:13.054Z,1003.45
2016-03-25T05:25:13.041Z,1003.41
2016-03-25T05:26:13.028Z,1003.45
2016-03-25T05:27:13.015Z,1003.47
2016-03-25T05:28:12.986Z,1003.45
2016-03-25T05:29:12.974Z,1003.39
2016-03-25T05:30:12.961Z,1003.43
2016-03-25T05:31:12.948Z,1003.44
2016-03-25T05:32:12.935Z,1003.43
2016-03-25T05:33:12.907Z,1003.35
2016-03-25T05:34:12.893Z,1003.36
2016-03-25T05:35:12.880Z,1003.37
2016-03-25T05:36:12.867Z,1003.32
2016-03-25T05:37:12.855Z,1003.33
2016-03-25T05:38:13.388Z,1003.27
2016-03-25T05:39:12.813Z,1003.32
2016-03-25T05:40:12.801Z,1003.34
2016-03-25T05:41:12.787Z,1003.33
2016-03-25T05:42:12.774Z,1003.34
2016-03-25T05:43:12.762Z,1003.33
2016-03-25T05:44:12.745Z,1003.29
2016-03-25T05:45:12.733Z,1003.3
2016-03-25T05:46:12.720Z,1003.27
2016-03-25T05:47:12.691Z,1003.29
2016-03-25T05:48:12.678Z,1003.26
2016-03-25T05:49:12.665Z,1003.28
2016-03-25T05:50:12.653Z,1003.24
2016-03-25T05:51:12.639Z,1003.22
2016-03-25T05:52:12.610Z,1003.23
2016-03-25T05:53:12.598Z,1003.27
2016-03-25T05:54:12.585Z,1003.27
2016-03-25T05:55:12.571Z,1003.33
2016-03-25T05:56:12.560Z,1003.28
2016-03-25T05:57:12.546Z,1003.23
2016-03-25T05:58:12.523Z,1003.26
2016-03-25T05:59:12.510Z,1003.29
2016-03-25T06:00:12.496Z,1003.26
2016-03-25T06:01:12.483Z,1003.28
2016-03-25T06:02:12.455Z,1003.22
2016-03-25T06:03:12.442Z,1003.24
2016-03-25T06:04:12.429Z,1003.22
2016-03-25T06:05:12.417Z,1003.21
2016-03-25T06:06:12.403Z,1003.19
2016-03-25T06:07:12.390Z,1003.17
2016-03-25T06:08:12.378Z,1003.16
2016-03-25T06:09:12.348Z,1003.18
2016-03-25T06:10:12.336Z,1003.22
2016-03-25T06:11:12.323Z,1003.18
2016-03-25T06:12:12.310Z,1003.15
2016-03-25T06:13:12.298Z,1003.16
2016-03-25T06:14:12.284Z,1003.17
2016-03-25T06:15:12.271Z,1003.15
2016-03-25T06:16:12.259Z,1003.19
2016-03-25T06:17:12.230Z,1003.14
2016-03-25T06:18:12.216Z,1003.14
2016-03-25T06:19:12.204Z,1003.19
2016-03-25T06:20:12.191Z,1003.14
2016-03-25T06:21:12.163Z,1003.09
2016-03-25T06:22:12.149Z,1003.16
2016-03-25T06:23:12.183Z,1003.11
2016-03-25T06:24:12.124Z,1003.07
2016-03-25T06:25:12.110Z,1003.09
2016-03-25T06:26:12.098Z,1003.13
2016-03-25T06:27:12.085Z,1003.09
2016-03-25T06:28:12.071Z,1003.08
2016-03-25T06:29:12.043Z,1003.13
2016-03-25T06:30:12.030Z,1003.1
2016-03-25T06:31:12.017Z,1003.09
2016-03-25T06:32:12.004Z,1003.08
2016-03-25T06:33:12.038Z,1003.12
2016-03-25T06:34:11.979Z,1003.1
2016-03-25T06:35:11.966Z,1003.1
2016-03-25T06:36:12.140Z,1003.12
2016-03-25T06:37:11.924Z,1003.06
2016-03-25T06:38:11.912Z,1003.08
2016-03-25T06:39:11.898Z,1003.12
2016-03-25T06:40:11.885Z,1003.11
2016-03-25T06:41:11.873Z,1003.07
2016-03-25T06:42:11.844Z,1003.12
2016-03-25T06:43:11.830Z,1003.08
2016-03-25T06:44:11.818Z,1003.03
2016-03-25T06:45:11.805Z,1003.05
2016-03-25T06:46:11.792Z,1003.06
2016-03-25T06:47:11.780Z,1003.03
2016-03-25T06:48:11.766Z,1002.98
2016-03-25T06:49:11.753Z,1003.06
2016-03-25T06:50:11.725Z,1003.04
2016-03-25T06:51:11.711Z,1003.04
2016-03-25T06:52:11.699Z,1003.03
2016-03-25T06:53:11.686Z,1003.02
2016-03-25T06:54:11.673Z,1003.07
2016-03-25T06:55:11.661Z,1002.98
2016-03-25T06:56:11.647Z,1002.95
2016-03-25T06:57:11.634Z,1002.99
2016-03-25T06:58:11.621Z,1003.02
2016-03-25T06:59:11.593Z,1002.99
2016-03-25T07:00:11.595Z,1002.9
2016-03-25T07:01:11.567Z,1002.98
2016-03-25T07:02:11.554Z,1003.03
2016-03-25T07:03:11.541Z,1002.98
2016-03-25T07:04:11.528Z,1003.04
2016-03-25T07:05:11.515Z,1003.02
2016-03-25T07:06:11.501Z,1003.01
2016-03-25T07:07:11.473Z,1002.98
2016-03-25T07:08:11.461Z,1002.97
2016-03-25T07:09:11.448Z,1002.95
2016-03-25T07:10:11.434Z,1002.95
2016-03-25T07:11:11.423Z,1002.98
2016-03-25T07:12:11.409Z,1002.93
2016-03-25T07:13:11.395Z,1003
2016-03-25T07:14:11.383Z,1002.98
2016-03-25T07:15:11.370Z,1002.9
2016-03-25T07:16:11.341Z,1002.95
2016-03-25T07:17:11.328Z,1002.94
2016-03-25T07:18:11.316Z,1002.93
2016-03-25T07:19:11.302Z,1002.98
2016-03-25T07:20:11.290Z,1002.98
2016-03-25T07:21:11.277Z,1002.94
2016-03-25T07:22:11.263Z,1002.95
2016-03-25T07:23:11.236Z,1002.98
2016-03-25T07:24:11.222Z,1002.99
2016-03-25T07:25:11.224Z,1002.99
2016-03-25T07:26:11.196Z,1002.97
2016-03-25T07:27:11.183Z,1002.9
2016-03-25T07:28:11.171Z,1002.97
2016-03-25T07:29:11.158Z,1002.96
2016-03-25T07:30:11.146Z,1002.99
2016-03-25T07:31:11.132Z,1002.94
2016-03-25T07:32:11.119Z,1002.91
2016-03-25T07:33:11.090Z,1002.9
2016-03-25T07:34:11.077Z,1002.94
2016-03-25T07:35:11.064Z,1002.94
2016-03-25T07:36:11.052Z,1002.88
2016-03-25T07:37:11.039Z,1002.91
2016-03-25T07:38:11.026Z,1002.89
2016-03-25T07:39:11.013Z,1002.92
2016-03-25T07:40:11.000Z,1002.89
2016-03-25T07:41:10.986Z,1002.95
2016-03-25T07:42:10.974Z,1002.87
2016-03-25T07:43:10.961Z,1002.88
2016-03-25T07:44:10.933Z,1002.78
2016-03-25T07:45:10.920Z,1002.86
2016-03-25T07:46:10.907Z,1002.85
2016-03-25T07:47:10.894Z,1002.85
2016-03-25T07:48:10.881Z,1002.87
2016-03-25T07:49:10.868Z,1002.85
2016-03-25T07:50:10.855Z,1002.85
2016-03-25T07:51:10.842Z,1002.88
2016-03-25T07:52:10.829Z,1002.84
2016-03-25T07:53:10.816Z,1002.87
2016-03-25T07:54:10.803Z,1002.83
2016-03-25T07:55:10.775Z,1002.82
2016-03-25T07:56:10.761Z,1002.78
2016-03-25T07:57:10.748Z,1002.84
2016-03-25T07:58:10.735Z,1002.79
2016-03-25T07:59:10.739Z,1002.72
2016-03-25T08:00:10.710Z,1002.8
2016-03-25T08:01:10.696Z,1002.78
2016-03-25T08:02:10.685Z,1002.79
2016-03-25T08:03:10.671Z,1002.78
2016-03-25T08:04:10.657Z,1002.78
2016-03-25T08:05:10.645Z,1002.77
2016-03-25T08:06:10.648Z,1002.79
2016-03-25T08:07:10.620Z,1002.79
2016-03-25T08:08:10.622Z,1002.77
2016-03-25T08:09:10.734Z,1002.8
2016-03-25T08:10:10.565Z,1002.82
2016-03-25T08:11:10.551Z,1002.8
2016-03-25T08:12:10.539Z,1002.83
2016-03-25T08:13:10.526Z,1002.83
2016-03-25T08:14:10.513Z,1002.79
2016-03-25T08:15:10.500Z,1002.76
2016-03-25T08:16:10.487Z,1002.79
2016-03-25T08:17:10.475Z,1002.84
2016-03-25T08:18:10.461Z,1002.82
2016-03-25T08:19:10.433Z,1002.85
2016-03-25T08:20:10.420Z,1002.84
2016-03-25T08:21:10.407Z,1002.78
2016-03-25T08:22:10.394Z,1002.81
2016-03-25T08:23:10.381Z,1002.74
2016-03-25T08:24:10.368Z,1002.8
2016-03-25T08:25:10.355Z,1002.8
2016-03-25T08:26:10.342Z,1002.76
2016-03-25T08:27:10.329Z,1002.77
2016-03-25T08:28:10.316Z,1002.81
2016-03-25T08:29:10.554Z,1002.8
2016-03-25T08:30:10.290Z,1002.85
2016-03-25T08:31:10.263Z,1002.79
2016-03-25T08:32:10.249Z,1002.78
2016-03-25T08:33:10.236Z,1002.73
2016-03-25T08:34:10.224Z,1002.83
2016-03-25T08:35:10.210Z,1002.79
2016-03-25T08:36:10.213Z,1002.82
2016-03-25T08:37:10.184Z,1002.74
2016-03-25T08:38:10.171Z,1002.77
2016-03-25T08:39:10.173Z,1002.81
2016-03-25T08:40:10.145Z,1002.8
2016-03-25T08:41:10.132Z,1002.85
2016-03-25T08:42:10.104Z,1002.86
2016-03-25T08:43:10.107Z,1002.88
2016-03-25T08:44:10.078Z,1002.87
2016-03-25T08:45:10.081Z,1002.86
2016-03-25T08:46:10.053Z,1002.85
2016-03-25T08:47:10.039Z,1002.89
2016-03-25T08:48:10.026Z,1002.87
2016-03-25T08:49:10.014Z,1002.88
2016-03-25T08:50:10.001Z,1002.86
2016-03-25T08:51:09.989Z,1002.87
2016-03-25T08:52:09.975Z,1002.89
2016-03-25T08:53:09.962Z,1002.84
2016-03-25T08:54:10.027Z,1002.85
2016-03-25T08:55:09.920Z,1002.82
2016-03-25T08:56:09.908Z,1002.78
2016-03-25T08:57:09.894Z,1002.82
2016-03-25T08:58:09.897Z,1002.83
2016-03-25T08:59:09.868Z,1002.8
2016-03-25T09:00:09.855Z,1002.85
2016-03-25T09:01:10.077Z,1002.77
2016-03-25T09:02:09.830Z,1002.85
2016-03-25T09:03:09.817Z,1002.87
2016-03-25T09:04:09.788Z,1002.87
2016-03-25T09:05:09.790Z,1002.86
2016-03-25T09:06:09.762Z,1002.83
2016-03-25T09:07:09.765Z,1002.9
2016-03-25T09:08:09.736Z,1002.89
2016-03-25T09:09:09.754Z,1002.94
2016-03-25T09:10:09.710Z,1002.93
2016-03-25T09:11:09.698Z,1002.88
2016-03-25T09:12:09.684Z,1002.92
2016-03-25T09:13:09.672Z,1002.92
2016-03-25T09:14:09.659Z,1002.94
2016-03-25T09:15:09.631Z,1002.98
2016-03-25T09:16:09.617Z,1003.01
2016-03-25T09:17:09.604Z,1003
2016-03-25T09:18:09.607Z,1003.07
2016-03-25T09:19:09.579Z,1003.01
2016-03-25T09:20:09.566Z,1003.06
2016-03-25T09:21:09.553Z,1003.05
2016-03-25T09:22:09.540Z,1003.06
2016-03-25T09:23:09.528Z,1003.01
2016-03-25T09:24:09.514Z,1003.03
2016-03-25T09:25:09.501Z,1003.07
2016-03-25T09:26:09.473Z,1003.05
2016-03-25T09:27:09.460Z,1002.97
2016-03-25T09:28:09.463Z,1003.07
2016-03-25T09:29:09.434Z,1003.15
2016-03-25T09:30:09.421Z,1003.11
2016-03-25T09:31:09.408Z,1003.09
2016-03-25T09:32:09.395Z,1003.07
2016-03-25T09:33:09.382Z,1003.1
2016-03-25T09:34:09.369Z,1003.07
2016-03-25T09:35:09.357Z,1003.11
2016-03-25T09:36:09.327Z,1003.11
2016-03-25T09:37:09.330Z,1003.11
2016-03-25T09:38:09.302Z,1003.12
2016-03-25T09:39:09.320Z,1002.93
2016-03-25T09:40:09.276Z,1003.09
2016-03-25T09:41:09.262Z,1003.11
2016-03-25T09:42:09.251Z,1003.1
2016-03-25T09:43:09.237Z,1003.08
2016-03-25T09:44:09.224Z,1003.17
2016-03-25T09:45:09.212Z,1003.08
2016-03-25T09:46:09.182Z,1003.15
2016-03-25T09:47:09.169Z,1003.09
2016-03-25T09:48:09.156Z,1003.08
2016-03-25T09:49:09.144Z,1003.19
2016-03-25T09:50:09.131Z,1003.08
2016-03-25T09:51:09.117Z,1003.13
2016-03-25T09:52:09.106Z,1003.08
2016-03-25T09:53:09.092Z,1003.06
2016-03-25T09:54:09.078Z,1003.05
2016-03-25T09:55:09.051Z,1003.05
2016-03-25T09:56:09.038Z,1003.06
2016-03-25T09:57:09.025Z,1003
2016-03-25T09:58:09.027Z,1003.07
2016-03-25T09:59:09.000Z,1003.09
2016-03-25T10:00:08.986Z,1003.04
2016-03-25T10:01:08.973Z,1003.03
2016-03-25T10:02:08.961Z,1003.01
2016-03-25T10:03:08.947Z,1003.02
2016-03-25T10:04:08.935Z,1002.99
2016-03-25T10:05:08.922Z,1003
2016-03-25T10:06:08.893Z,1002.99
2016-03-25T10:07:08.896Z,1002.97
2016-03-25T10:08:08.866Z,1003.02
2016-03-25T10:09:08.869Z,1002.98
2016-03-25T10:10:08.841Z,1002.96
2016-03-25T10:11:08.828Z,1003
2016-03-25T10:12:08.815Z,1002.94
2016-03-25T10:13:08.802Z,1002.96
2016-03-25T10:14:08.790Z,1002.9
2016-03-25T10:15:08.776Z,1002.98
2016-03-25T10:16:08.762Z,1002.95
2016-03-25T10:17:08.751Z,1002.96
2016-03-25T10:18:08.737Z,1002.96
2016-03-25T10:19:08.709Z,1002.95
2016-03-25T10:20:08.712Z,1002.95
2016-03-25T10:21:08.684Z,1002.97
2016-03-25T10:22:08.670Z,1002.92
2016-03-25T10:23:08.656Z,1002.98
2016-03-25T10:24:08.660Z,1002.96
2016-03-25T10:25:08.631Z,1002.97
2016-03-25T10:26:08.619Z,1002.91
2016-03-25T10:27:08.605Z,1002.94
2016-03-25T10:28:08.592Z,1002.91
2016-03-25T10:29:08.579Z,1002.9
2016-03-25T10:30:08.566Z,1002.94
2016-03-25T10:31:08.553Z,1002.92
2016-03-25T10:32:08.525Z,1002.91
2016-03-25T10:33:08.512Z,1002.93
2016-03-25T10:34:08.499Z,1002.93
2016-03-25T10:35:08.486Z,1002.92
2016-03-25T10:36:08.473Z,1002.93
2016-03-25T10:37:08.460Z,1002.97
2016-03-25T10:38:08.447Z,1002.92
2016-03-25T10:39:08.434Z,1002.94
2016-03-25T10:40:08.421Z,1002.97
2016-03-25T10:41:08.409Z,1002.92
2016-03-25T10:42:08.379Z,1002.9
2016-03-25T10:43:08.367Z,1002.93
2016-03-25T10:44:08.354Z,1002.95
2016-03-25T10:45:08.340Z,1002.92
2016-03-25T10:46:08.343Z,1002.96
2016-03-25T10:47:08.315Z,1002.93
2016-03-25T10:48:08.303Z,1002.96
2016-03-25T10:49:08.289Z,1002.97
2016-03-25T10:50:08.276Z,1002.97
2016-03-25T10:51:08.264Z,1002.97
2016-03-25T10:52:08.250Z,1003
2016-03-25T10:53:08.237Z,1002.99
2016-03-25T10:54:08.240Z,1002.93
2016-03-25T10:55:08.211Z,1002.99
2016-03-25T10:56:08.199Z,1003
2016-03-25T10:57:08.186Z,1002.97
2016-03-25T10:58:08.172Z,1003.02
2016-03-25T10:59:08.160Z,1003.05
2016-03-25T11:00:08.147Z,1003.06
2016-03-25T11:01:08.149Z,1003.03
2016-03-25T11:02:08.105Z,1003.09
2016-03-25T11:03:08.093Z,1002.97
2016-03-25T11:04:08.080Z,1002.93
2016-03-25T11:05:08.066Z,1002.94
2016-03-25T11:06:08.054Z,1002.95
2016-03-25T11:07:08.041Z,1002.94
2016-03-25T11:08:08.027Z,1002.9
2016-03-25T11:09:08.030Z,1002.93
2016-03-25T11:10:08.002Z,1002.8
2016-03-25T11:11:07.989Z,1002.84
2016-03-25T11:12:07.976Z,1002.81
2016-03-25T11:13:07.963Z,1002.83
2016-03-25T11:14:07.950Z,1002.79
2016-03-25T11:15:07.937Z,1002.81
2016-03-25T11:16:07.924Z,1002.81
2016-03-25T11:17:07.911Z,1002.84
2016-03-25T11:18:07.898Z,1002.8
2016-03-25T11:19:07.886Z,1002.81
2016-03-25T11:20:07.889Z,1002.78
2016-03-25T11:21:07.875Z,1002.79
2016-03-25T11:22:07.862Z,1002.82
2016-03-25T11:23:07.850Z,1002.81
2016-03-25T11:24:07.837Z,1002.79
2016-03-25T11:25:07.824Z,1002.8
2016-03-25T11:26:07.811Z,1002.81
2016-03-25T11:27:07.798Z,1002.79
2016-03-25T11:28:07.786Z,1002.85
2016-03-25T11:29:07.773Z,1002.78
2016-03-25T11:30:07.759Z,1002.77
2016-03-25T11:31:07.747Z,1002.76
2016-03-25T11:32:07.750Z,1002.76
2016-03-25T11:33:07.736Z,1002.74
2016-03-25T11:34:07.723Z,1002.78
2016-03-25T11:35:07.711Z,1002.78
2016-03-25T11:36:07.697Z,1002.77
2016-03-25T11:37:07.685Z,1002.84
2016-03-25T11:38:07.672Z,1002.78
2016-03-25T11:39:07.675Z,1002.79
2016-03-25T11:40:07.644Z,1002.77
2016-03-25T11:41:07.638Z,1002.76
2016-03-25T11:42:07.616Z,1002.74
2016-03-25T11:43:07.603Z,1002.74
2016-03-25T11:44:09.497Z,1002.79
2016-03-25T11:45:07.571Z,1002.76
2016-03-25T11:46:07.558Z,1002.68
2016-03-25T11:47:07.545Z,1002.78
2016-03-25T11:48:07.532Z,1002.71
2016-03-25T11:49:07.518Z,1002.69
2016-03-25T11:50:07.506Z,1002.75
2016-03-25T11:51:07.493Z,1002.7
2016-03-25T11:52:07.479Z,1002.72
2016-03-25T11:53:07.467Z,1002.69
2016-03-25T11:54:07.453Z,1002.76
2016-03-25T11:55:07.428Z,1002.77
2016-03-25T11:56:07.406Z,1002.71
2016-03-25T11:57:07.381Z,1002.72
2016-03-25T11:58:07.356Z,1002.74
2016-03-25T11:59:07.339Z,1002.73
2016-03-25T12:00:07.322Z,1002.7
2016-03-25T12:01:07.305Z,1002.71
2016-03-25T12:02:07.288Z,1002.72
2016-03-25T12:03:07.270Z,1002.75
2016-03-25T12:04:07.256Z,1002.73
2016-03-25T12:05:07.242Z,1002.74
2016-03-25T12:06:07.228Z,1002.76
2016-03-25T12:07:07.214Z,1002.78
2016-03-25T12:08:07.185Z,1002.76